sensor_id;sensor_type;location;lat;lon;timestamp;pressure;altitude;pressure_sealevel;temperature;humidity
13478;BME280;12598;62.382;17.344;2023-08-06T00:00:56;101116.53;;;26.81;37.08
13478;BME280;12598;62.382;17.344;2023-08-06T00:01:58;101123.22;;;26.85;37.08
13478;BME280;12598;62.382;17.344;2023-08-06T00:03:00;101115.19;;;26.77;37.17
13478;BME280;12598;62.382;17.344;2023-08-06T00:04:02;101118.78;;;26.78;37.26
13478;BME280;12598;62.382;17.344;2023-08-06T00:05:05;101128.00;;;26.83;37.20
13478;BME280;12598;62.382;17.344;2023-08-06T00:06:07;101126.34;;;26.82;37.23
13478;BME280;12598;62.382;17.344;2023-08-06T00:07:09;101121.94;;;26.81;37.33
13478;BME280;12598;62.382;17.344;2023-08-06T00:08:11;101120.91;;;26.82;37.32
13478;BME280;12598;62.382;17.344;2023-08-06T00:09:13;101117.56;;;26.80;37.33
13478;BME280;12598;62.382;17.344;2023-08-06T00:10:15;101102.44;;;26.71;37.44
13478;BME280;12598;62.382;17.344;2023-08-06T00:11:17;101128.41;;;26.80;37.40
13478;BME280;12598;62.382;17.344;2023-08-06T00:12:19;101118.59;;;26.79;37.23
13478;BME280;12598;62.382;17.344;2023-08-06T00:13:21;101119.59;;;26.78;37.40
13478;BME280;12598;62.382;17.344;2023-08-06T00:14:23;101112.06;;;26.74;37.42
13478;BME280;12598;62.382;17.344;2023-08-06T00:15:25;101117.91;;;26.77;37.68
13478;BME280;12598;62.382;17.344;2023-08-06T00:16:26;101110.38;;;26.73;37.41
13478;BME280;12598;62.382;17.344;2023-08-06T00:17:28;101118.94;;;26.76;37.49
13478;BME280;12598;62.382;17.344;2023-08-06T00:18:30;101114.56;;;26.75;37.39
13478;BME280;12598;62.382;17.344;2023-08-06T00:19:32;101120.19;;;26.74;37.50
13478;BME280;12598;62.382;17.344;2023-08-06T00:20:34;101116.44;;;26.75;37.48
13478;BME280;12598;62.382;17.344;2023-08-06T00:21:36;101103.59;;;26.62;37.44
13478;BME280;12598;62.382;17.344;2023-08-06T00:22:40;101117.50;;;26.74;37.64
13478;BME280;12598;62.382;17.344;2023-08-06T00:23:42;101123.09;;;26.72;37.43
13478;BME280;12598;62.382;17.344;2023-08-06T00:24:44;101122.06;;;26.73;37.71
13478;BME280;12598;62.382;17.344;2023-08-06T00:25:46;101124.13;;;26.71;37.55
13478;BME280;12598;62.382;17.344;2023-08-06T00:26:48;101121.63;;;26.70;37.56
13478;BME280;12598;62.382;17.344;2023-08-06T00:27:50;101115.16;;;26.71;37.77
13478;BME280;12598;62.382;17.344;2023-08-06T00:28:51;101120.78;;;26.69;37.76
13478;BME280;12598;62.382;17.344;2023-08-06T00:29:54;101122.44;;;26.70;37.69
13478;BME280;12598;62.382;17.344;2023-08-06T00:30:57;101119.94;;;26.69;37.67
13478;BME280;12598;62.382;17.344;2023-08-06T00:31:59;101116.38;;;26.68;37.64
13478;BME280;12598;62.382;17.344;2023-08-06T00:33:00;101119.94;;;26.69;37.67
13478;BME280;12598;62.382;17.344;2023-08-06T00:34:02;101120.13;;;26.67;37.58
13478;BME280;12598;62.382;17.344;2023-08-06T00:35:05;101123.88;;;26.66;37.64
13478;BME280;12598;62.382;17.344;2023-08-06T00:36:07;101119.31;;;26.67;37.75
13478;BME280;12598;62.382;17.344;2023-08-06T00:37:09;101109.88;;;26.63;37.96
13478;BME280;12598;62.382;17.344;2023-08-06T00:38:11;101124.09;;;26.65;37.65
13478;BME280;12598;62.382;17.344;2023-08-06T00:39:12;101125.78;;;26.66;37.50
13478;BME280;12598;62.382;17.344;2023-08-06T00:40:15;101126.81;;;26.65;37.59
13478;BME280;12598;62.382;17.344;2023-08-06T00:41:17;101120.53;;;26.64;37.84
13478;BME280;12598;62.382;17.344;2023-08-06T00:42:19;101124.09;;;26.65;37.90
13478;BME280;12598;62.382;17.344;2023-08-06T00:43:22;101128.66;;;26.64;37.74
13478;BME280;12598;62.382;17.344;2023-08-06T00:44:24;101125.13;;;26.64;37.93
13478;BME280;12598;62.382;17.344;2023-08-06T00:45:26;101128.00;;;26.62;37.88
13478;BME280;12598;62.382;17.344;2023-08-06T00:46:30;101129.69;;;26.63;37.93
13478;BME280;12598;62.382;17.344;2023-08-06T00:47:32;101122.34;;;26.57;38.03
13478;BME280;12598;62.382;17.344;2023-08-06T00:48:34;101121.94;;;26.60;38.20
13478;BME280;12598;62.382;17.344;2023-08-06T00:49:36;101130.09;;;26.60;37.55
13478;BME280;12598;62.382;17.344;2023-08-06T00:50:38;101124.66;;;26.60;37.86
13478;BME280;12598;62.382;17.344;2023-08-06T00:51:40;101124.66;;;26.60;37.92
13478;BME280;12598;62.382;17.344;2023-08-06T00:52:43;101120.28;;;26.59;38.11
13478;BME280;12598;62.382;17.344;2023-08-06T00:53:45;101118.59;;;26.58;38.16
13478;BME280;12598;62.382;17.344;2023-08-06T00:54:47;101121.31;;;26.58;38.24
13478;BME280;12598;62.382;17.344;2023-08-06T00:55:50;101123.16;;;26.58;38.25
13478;BME280;12598;62.382;17.344;2023-08-06T00:56:53;101121.31;;;26.58;38.16
13478;BME280;12598;62.382;17.344;2023-08-06T00:57:55;101097.53;;;26.39;37.95
13478;BME280;12598;62.382;17.344;2023-08-06T00:58:58;101126.91;;;26.57;38.39
13478;BME280;12598;62.382;17.344;2023-08-06T01:00:00;101125.06;;;26.57;37.86
13478;BME280;12598;62.382;17.344;2023-08-06T01:01:02;101127.75;;;26.57;38.09
13478;BME280;12598;62.382;17.344;2023-08-06T01:02:04;101118.53;;;26.52;38.30
13478;BME280;12598;62.382;17.344;2023-08-06T01:03:06;101113.94;;;26.52;38.08
13478;BME280;12598;62.382;17.344;2023-08-06T01:04:09;101119.38;;;26.52;38.27
13478;BME280;12598;62.382;17.344;2023-08-06T01:05:12;101123.38;;;26.56;38.31
13478;BME280;12598;62.382;17.344;2023-08-06T01:06:15;101111.03;;;26.54;38.42
13478;BME280;12598;62.382;17.344;2023-08-06T01:09:11;101119.09;;;26.68;37.84
13478;BME280;12598;62.382;17.344;2023-08-06T01:10:23;101115.75;;;26.66;38.08
13478;BME280;12598;62.382;17.344;2023-08-06T01:11:47;101116.38;;;26.68;38.03
13478;BME280;12598;62.382;17.344;2023-08-06T01:13:29;101121.22;;;26.73;38.01
13478;BME280;12598;62.382;17.344;2023-08-06T01:14:57;101127.47;;;26.73;37.75
13478;BME280;12598;62.382;17.344;2023-08-06T01:16:02;101121.81;;;26.68;37.89
13478;BME280;12598;62.382;17.344;2023-08-06T01:17:05;101117.56;;;26.59;38.16
13478;BME280;12598;62.382;17.344;2023-08-06T01:18:07;101127.59;;;26.59;38.10
13478;BME280;12598;62.382;17.344;2023-08-06T01:19:19;101125.06;;;26.57;38.38
13478;BME280;12598;62.382;17.344;2023-08-06T01:20:21;101126.09;;;26.56;38.03
13478;BME280;12598;62.382;17.344;2023-08-06T01:21:23;101125.44;;;26.54;38.28
13478;BME280;12598;62.382;17.344;2023-08-06T01:22:25;101122.25;;;26.51;38.27
13478;BME280;12598;62.382;17.344;2023-08-06T01:23:27;101127.69;;;26.51;38.48
13478;BME280;12598;62.382;17.344;2023-08-06T01:24:29;101126.88;;;26.50;38.29
13478;BME280;12598;62.382;17.344;2023-08-06T01:25:40;101113.47;;;26.49;38.32
13478;BME280;12598;62.382;17.344;2023-08-06T01:26:59;101124.78;;;26.52;38.35
13478;BME280;12598;62.382;17.344;2023-08-06T01:28:50;101125.44;;;26.54;38.33
13478;BME280;12598;62.382;17.344;2023-08-06T01:29:42;101114.59;;;26.54;37.95
13478;BME280;12598;62.382;17.344;2023-08-06T01:30:48;101126.09;;;26.56;38.17
13478;BME280;12598;62.382;17.344;2023-08-06T01:31:52;101126.47;;;26.53;38.52
13478;BME280;12598;62.382;17.344;2023-08-06T01:32:58;101127.25;;;26.47;38.27
13478;BME280;12598;62.382;17.344;2023-08-06T01:34:08;101100.81;;;26.35;38.49
13478;BME280;12598;62.382;17.344;2023-08-06T01:35:12;101118.09;;;26.48;38.24
13478;BME280;12598;62.382;17.344;2023-08-06T01:36:16;101130.63;;;26.49;38.23
13478;BME280;12598;62.382;17.344;2023-08-06T01:37:20;101123.88;;;26.45;38.29
13478;BME280;12598;62.382;17.344;2023-08-06T01:38:22;101128.28;;;26.46;38.49
13478;BME280;12598;62.382;17.344;2023-08-06T01:39:25;101136.44;;;26.46;38.55
13478;BME280;12598;62.382;17.344;2023-08-06T01:40:27;101134.72;;;26.45;38.65
13478;BME280;12598;62.382;17.344;2023-08-06T01:41:30;101134.72;;;26.45;38.54
13478;BME280;12598;62.382;17.344;2023-08-06T01:42:32;101144.72;;;26.45;38.42
13478;BME280;12598;62.382;17.344;2023-08-06T01:43:34;101140.31;;;26.44;38.50
13478;BME280;12598;62.382;17.344;2023-08-06T01:44:36;101147.63;;;26.43;38.37
13478;BME280;12598;62.382;17.344;2023-08-06T01:45:37;101126.25;;;26.34;38.62
13478;BME280;12598;62.382;17.344;2023-08-06T01:46:40;101129.41;;;26.37;38.45
13478;BME280;12598;62.382;17.344;2023-08-06T01:47:41;101138.84;;;26.41;38.54
13478;BME280;12598;62.382;17.344;2023-08-06T01:48:44;101144.28;;;26.41;38.66
13478;BME280;12598;62.382;17.344;2023-08-06T01:49:46;101146.97;;;26.41;38.60
13478;BME280;12598;62.382;17.344;2023-08-06T01:50:48;101143.41;;;26.41;38.46
13478;BME280;12598;62.382;17.344;2023-08-06T01:51:50;101140.28;;;26.37;38.54
13478;BME280;12598;62.382;17.344;2023-08-06T01:52:52;101148.00;;;26.40;38.57
13478;BME280;12598;62.382;17.344;2023-08-06T01:53:54;101148.00;;;26.40;38.68
13478;BME280;12598;62.382;17.344;2023-08-06T01:54:56;101143.63;;;26.39;38.53
13478;BME280;12598;62.382;17.344;2023-08-06T01:55:58;101143.63;;;26.39;38.64
13478;BME280;12598;62.382;17.344;2023-08-06T01:57:00;101151.75;;;26.39;38.74
13478;BME280;12598;62.382;17.344;2023-08-06T01:58:02;101142.97;;;26.37;38.72
13478;BME280;12598;62.382;17.344;2023-08-06T01:59:04;101152.78;;;26.38;38.62
13478;BME280;12598;62.382;17.344;2023-08-06T02:00:07;101153.63;;;26.39;38.49
13478;BME280;12598;62.382;17.344;2023-08-06T02:01:13;101146.69;;;26.36;38.45
13478;BME280;12598;62.382;17.344;2023-08-06T02:02:15;101144.84;;;26.37;38.58
13478;BME280;12598;62.382;17.344;2023-08-06T02:03:17;101132.88;;;26.31;38.92
13478;BME280;12598;62.382;17.344;2023-08-06T02:04:19;101141.94;;;26.38;38.43
13478;BME280;12598;62.382;17.344;2023-08-06T02:05:21;101150.91;;;26.39;38.58
13478;BME280;12598;62.382;17.344;2023-08-06T02:06:22;101148.41;;;26.37;38.33
13478;BME280;12598;62.382;17.344;2023-08-06T02:07:24;101142.97;;;26.37;38.50
13478;BME280;12598;62.382;17.344;2023-08-06T02:08:27;101146.50;;;26.38;38.60
13478;BME280;12598;62.382;17.344;2023-08-06T02:09:29;101141.66;;;26.33;38.77
13478;BME280;12598;62.382;17.344;2023-08-06T02:10:31;101146.69;;;26.36;38.82
13478;BME280;12598;62.382;17.344;2023-08-06T02:11:33;101146.69;;;26.36;38.62
13478;BME280;12598;62.382;17.344;2023-08-06T02:12:34;101146.69;;;26.36;38.49
13478;BME280;12598;62.382;17.344;2023-08-06T02:13:36;101145.88;;;26.36;38.72
13478;BME280;12598;62.382;17.344;2023-08-06T02:14:39;101151.28;;;26.36;38.75
13478;BME280;12598;62.382;17.344;2023-08-06T02:15:44;101145.00;;;26.35;39.14
13478;BME280;12598;62.382;17.344;2023-08-06T02:16:47;101151.13;;;26.37;38.80
13478;BME280;12598;62.382;17.344;2023-08-06T02:17:49;101150.25;;;26.37;38.51
13478;BME280;12598;62.382;17.344;2023-08-06T02:18:51;101151.28;;;26.36;38.78
13478;BME280;12598;62.382;17.344;2023-08-06T02:19:53;101147.72;;;26.35;38.61
13478;BME280;12598;62.382;17.344;2023-08-06T02:20:56;101153.16;;;26.35;38.87
13478;BME280;12598;62.382;17.344;2023-08-06T02:21:59;101146.69;;;26.36;38.81
13478;BME280;12598;62.382;17.344;2023-08-06T02:23:01;101156.72;;;26.36;38.78
13478;BME280;12598;62.382;17.344;2023-08-06T02:24:03;101158.56;;;26.35;38.86
13478;BME280;12598;62.382;17.344;2023-08-06T02:25:05;101154.19;;;26.34;38.45
13478;BME280;12598;62.382;17.344;2023-08-06T02:26:07;101163.72;;;26.30;38.89
13478;BME280;12598;62.382;17.344;2023-08-06T02:27:09;101153.09;;;26.29;38.81
13478;BME280;12598;62.382;17.344;2023-08-06T02:28:11;101158.31;;;26.30;38.54
13478;BME280;12598;62.382;17.344;2023-08-06T02:29:14;101165.03;;;26.34;38.93
13478;BME280;12598;62.382;17.344;2023-08-06T02:30:17;101154.94;;;26.28;38.99
13478;BME280;12598;62.382;17.344;2023-08-06T02:31:20;101155.81;;;26.29;38.87
13478;BME280;12598;62.382;17.344;2023-08-06T02:32:22;101157.91;;;26.33;38.80
13478;BME280;12598;62.382;17.344;2023-08-06T02:33:24;101144.31;;;26.27;38.89
13478;BME280;12598;62.382;17.344;2023-08-06T02:34:25;101158.94;;;26.32;38.59
13478;BME280;12598;62.382;17.344;2023-08-06T02:35:27;101156.25;;;26.32;38.87
13478;BME280;12598;62.382;17.344;2023-08-06T02:36:29;101166.44;;;26.30;38.76
13478;BME280;12598;62.382;17.344;2023-08-06T02:37:34;101158.31;;;26.30;39.07
13478;BME280;12598;62.382;17.344;2023-08-06T02:38:36;101150.81;;;26.32;39.01
13478;BME280;12598;62.382;17.344;2023-08-06T02:39:38;101160.84;;;26.32;38.54
13478;BME280;12598;62.382;17.344;2023-08-06T02:40:45;101149.25;;;26.23;38.92
13478;BME280;12598;62.382;17.344;2023-08-06T02:41:48;101163.34;;;26.33;39.09
13478;BME280;12598;62.382;17.344;2023-08-06T02:42:49;101167.09;;;26.32;38.96
13478;BME280;12598;62.382;17.344;2023-08-06T02:43:52;101164.59;;;26.31;38.73
13478;BME280;12598;62.382;17.344;2023-08-06T02:44:55;101169.16;;;26.30;38.60
13478;BME280;12598;62.382;17.344;2023-08-06T02:45:57;101164.97;;;26.28;38.90
13478;BME280;12598;62.382;17.344;2023-08-06T02:47:00;101172.72;;;26.31;38.61
13478;BME280;12598;62.382;17.344;2023-08-06T02:48:02;101169.16;;;26.30;38.77
13478;BME280;12598;62.382;17.344;2023-08-06T02:49:06;101166.19;;;26.25;38.87
13478;BME280;12598;62.382;17.344;2023-08-06T02:50:08;101169.53;;;26.27;38.87
13478;BME280;12598;62.382;17.344;2023-08-06T02:51:10;101173.75;;;26.30;38.93
13478;BME280;12598;62.382;17.344;2023-08-06T02:52:12;101166.56;;;26.22;38.82
13478;BME280;12598;62.382;17.344;2023-08-06T02:53:14;101178.31;;;26.29;38.91
13478;BME280;12598;62.382;17.344;2023-08-06T02:54:18;101182.06;;;26.28;38.63
13478;BME280;12598;62.382;17.344;2023-08-06T02:55:20;101177.50;;;26.29;38.89
13478;BME280;12598;62.382;17.344;2023-08-06T02:56:23;101180.38;;;26.27;39.13
13478;BME280;12598;62.382;17.344;2023-08-06T02:57:40;101183.34;;;26.32;38.81
13478;BME280;12598;62.382;17.344;2023-08-06T02:58:42;101190.66;;;26.32;38.70
13478;BME280;12598;62.382;17.344;2023-08-06T02:59:54;101182.72;;;26.30;38.60
13478;BME280;12598;62.382;17.344;2023-08-06T03:01:05;101186.94;;;26.33;38.73
13478;BME280;12598;62.382;17.344;2023-08-06T03:02:19;101188.59;;;26.34;38.92
13478;BME280;12598;62.382;17.344;2023-08-06T03:03:31;101185.03;;;26.33;38.93
13478;BME280;12598;62.382;17.344;2023-08-06T03:04:35;101185.91;;;26.34;38.80
13478;BME280;12598;62.382;17.344;2023-08-06T03:05:37;101190.66;;;26.32;38.66
13478;BME280;12598;62.382;17.344;2023-08-06T03:06:39;101190.03;;;26.30;38.77
13478;BME280;12598;62.382;17.344;2023-08-06T03:07:41;101183.47;;;26.24;39.19
13478;BME280;12598;62.382;17.344;2023-08-06T03:08:49;101186.47;;;26.29;38.85
13478;BME280;12598;62.382;17.344;2023-08-06T03:09:51;101192.91;;;26.28;38.84
13478;BME280;12598;62.382;17.344;2023-08-06T03:10:54;101176.09;;;26.18;38.70
13478;BME280;12598;62.382;17.344;2023-08-06T03:11:56;101189.56;;;26.26;38.83
13478;BME280;12598;62.382;17.344;2023-08-06T03:12:58;101189.56;;;26.26;38.88
13478;BME280;12598;62.382;17.344;2023-08-06T03:14:00;101193.28;;;26.25;39.01
13478;BME280;12598;62.382;17.344;2023-08-06T03:15:02;101194.16;;;26.26;38.83
13478;BME280;12598;62.382;17.344;2023-08-06T03:16:04;101181.53;;;26.18;38.84
13478;BME280;12598;62.382;17.344;2023-08-06T03:17:06;101197.91;;;26.25;39.09
13478;BME280;12598;62.382;17.344;2023-08-06T03:18:08;101191.63;;;26.24;39.04
13478;BME280;12598;62.382;17.344;2023-08-06T03:19:09;101192.66;;;26.23;39.20
13478;BME280;12598;62.382;17.344;2023-08-06T03:20:12;101200.59;;;26.25;39.08
13478;BME280;12598;62.382;17.344;2023-08-06T03:21:14;101191.63;;;26.24;39.02
13478;BME280;12598;62.382;17.344;2023-08-06T03:22:16;101195.19;;;26.25;38.93
13478;BME280;12598;62.382;17.344;2023-08-06T03:23:19;101198.72;;;26.25;38.64
13478;BME280;12598;62.382;17.344;2023-08-06T03:24:21;101197.91;;;26.25;39.08
13478;BME280;12598;62.382;17.344;2023-08-06T03:25:23;101192.00;;;26.21;38.76
13478;BME280;12598;62.382;17.344;2023-08-06T03:26:25;101197.03;;;26.24;38.88
13478;BME280;12598;62.382;17.344;2023-08-06T03:27:27;101193.50;;;26.24;38.94
13478;BME280;12598;62.382;17.344;2023-08-06T03:28:30;101201.81;;;26.22;39.11
13478;BME280;12598;62.382;17.344;2023-08-06T03:29:33;101201.63;;;26.24;39.07
13478;BME280;12598;62.382;17.344;2023-08-06T03:30:36;101196.38;;;26.22;39.07
13478;BME280;12598;62.382;17.344;2023-08-06T03:31:38;101194.53;;;26.23;39.05
13478;BME280;12598;62.382;17.344;2023-08-06T03:32:41;101199.75;;;26.24;38.74
13478;BME280;12598;62.382;17.344;2023-08-06T03:33:43;101197.25;;;26.23;38.92
13478;BME280;12598;62.382;17.344;2023-08-06T03:34:49;101198.06;;;26.23;38.67
13478;BME280;12598;62.382;17.344;2023-08-06T03:35:51;101201.63;;;26.24;38.91
13478;BME280;12598;62.382;17.344;2023-08-06T03:36:54;101202.66;;;26.23;39.01
13478;BME280;12598;62.382;17.344;2023-08-06T03:37:56;101199.97;;;26.23;39.15
13478;BME280;12598;62.382;17.344;2023-08-06T03:38:57;101199.97;;;26.23;39.34
13478;BME280;12598;62.382;17.344;2023-08-06T03:40:00;101188.63;;;26.19;38.97
13478;BME280;12598;62.382;17.344;2023-08-06T03:41:03;101200.78;;;26.23;38.97
13478;BME280;12598;62.382;17.344;2023-08-06T03:42:05;101194.06;;;26.19;38.95
13478;BME280;12598;62.382;17.344;2023-08-06T03:43:07;101192.38;;;26.18;39.04
13478;BME280;12598;62.382;17.344;2023-08-06T03:44:08;101200.13;;;26.21;39.11
13478;BME280;12598;62.382;17.344;2023-08-06T03:45:10;101198.44;;;26.20;39.42
13478;BME280;12598;62.382;17.344;2023-08-06T03:46:14;101204.53;;;26.22;39.08
13478;BME280;12598;62.382;17.344;2023-08-06T03:47:16;101185.28;;;26.17;38.97
13478;BME280;12598;62.382;17.344;2023-08-06T03:48:19;101206.59;;;26.20;39.06
13478;BME280;12598;62.382;17.344;2023-08-06T03:49:21;101195.75;;;26.20;39.13
13478;BME280;12598;62.382;17.344;2023-08-06T03:50:23;101202.00;;;26.21;39.14
13478;BME280;12598;62.382;17.344;2023-08-06T03:51:25;101206.59;;;26.20;39.07
13478;BME280;12598;62.382;17.344;2023-08-06T03:52:28;101201.16;;;26.20;39.12
13478;BME280;12598;62.382;17.344;2023-08-06T03:53:30;101202.84;;;26.21;39.26
13478;BME280;12598;62.382;17.344;2023-08-06T03:54:32;101201.16;;;26.20;39.29
13478;BME280;12598;62.382;17.344;2023-08-06T03:55:36;101196.78;;;26.19;39.08
13478;BME280;12598;62.382;17.344;2023-08-06T03:56:38;101196.78;;;26.19;39.13
13478;BME280;12598;62.382;17.344;2023-08-06T03:57:39;101194.06;;;26.19;39.07
13478;BME280;12598;62.382;17.344;2023-08-06T03:58:42;101195.75;;;26.20;39.32
13478;BME280;12598;62.382;17.344;2023-08-06T03:59:44;101191.34;;;26.19;39.13
13478;BME280;12598;62.382;17.344;2023-08-06T04:01:01;101195.34;;;26.23;39.09
13478;BME280;12598;62.382;17.344;2023-08-06T04:02:11;101195.81;;;26.27;38.87
13478;BME280;12598;62.382;17.344;2023-08-06T04:03:12;101196.59;;;26.21;39.17
13478;BME280;12598;62.382;17.344;2023-08-06T04:04:16;101201.81;;;26.22;39.12
13478;BME280;12598;62.382;17.344;2023-08-06T04:05:19;101197.41;;;26.21;39.22
13478;BME280;12598;62.382;17.344;2023-08-06T04:06:20;101198.44;;;26.20;39.17
13478;BME280;12598;62.382;17.344;2023-08-06T04:07:22;101190.31;;;26.20;39.10
13478;BME280;12598;62.382;17.344;2023-08-06T04:08:24;101196.78;;;26.19;39.31
13478;BME280;12598;62.382;17.344;2023-08-06T04:09:28;101193.25;;;26.19;39.35
13478;BME280;12598;62.382;17.344;2023-08-06T04:10:30;101195.75;;;26.20;39.12
13478;BME280;12598;62.382;17.344;2023-08-06T04:11:32;101182.69;;;26.09;39.28
13478;BME280;12598;62.382;17.344;2023-08-06T04:12:34;101198.66;;;26.19;39.36
13478;BME280;12598;62.382;17.344;2023-08-06T04:13:38;101200.50;;;26.18;39.28
13478;BME280;12598;62.382;17.344;2023-08-06T04:14:40;101196.78;;;26.19;39.40
13478;BME280;12598;62.382;17.344;2023-08-06T04:15:41;101197.31;;;26.15;39.58
13478;BME280;12598;62.382;17.344;2023-08-06T04:16:43;101212.22;;;26.19;39.61
13478;BME280;12598;62.382;17.344;2023-08-06T04:17:45;101210.31;;;26.19;39.88
13478;BME280;12598;62.382;17.344;2023-08-06T04:18:48;101208.66;;;26.18;39.33
13478;BME280;12598;62.382;17.344;2023-08-06T04:19:53;101208.66;;;26.18;39.73
13478;BME280;12598;62.382;17.344;2023-08-06T04:20:56;101203.88;;;26.20;39.47
13478;BME280;12598;62.382;17.344;2023-08-06T04:21:59;101210.97;;;26.21;39.52
13478;BME280;12598;62.382;17.344;2023-08-06T04:23:06;101204.91;;;26.19;39.52
13478;BME280;12598;62.382;17.344;2023-08-06T04:24:08;101205.94;;;26.18;39.31
13478;BME280;12598;62.382;17.344;2023-08-06T04:25:10;101215.56;;;26.21;39.35
13478;BME280;12598;62.382;17.344;2023-08-06T04:26:12;101212.88;;;26.21;39.15
13478;BME280;12598;62.382;17.344;2023-08-06T04:27:15;101206.59;;;26.20;39.63
13478;BME280;12598;62.382;17.344;2023-08-06T04:28:19;101212.00;;;26.20;39.44
13478;BME280;12598;62.382;17.344;2023-08-06T04:29:21;101216.59;;;26.20;39.51
13478;BME280;12598;62.382;17.344;2023-08-06T04:30:23;101199.84;;;26.16;39.57
13478;BME280;12598;62.382;17.344;2023-08-06T04:31:24;101197.72;;;26.12;39.55
13478;BME280;12598;62.382;17.344;2023-08-06T04:32:26;101214.72;;;26.20;39.50
13478;BME280;12598;62.382;17.344;2023-08-06T04:33:29;101219.09;;;26.21;39.64
13478;BME280;12598;62.382;17.344;2023-08-06T04:34:37;101209.03;;;26.15;39.84
13478;BME280;12598;62.382;17.344;2023-08-06T04:35:39;101224.53;;;26.21;39.56
13478;BME280;12598;62.382;17.344;2023-08-06T04:36:41;101215.56;;;26.21;39.36
13478;BME280;12598;62.382;17.344;2023-08-06T04:37:44;101216.59;;;26.20;39.52
13478;BME280;12598;62.382;17.344;2023-08-06T04:38:46;101215.75;;;26.19;39.69
13478;BME280;12598;62.382;17.344;2023-08-06T04:39:50;101217.44;;;26.20;39.64
13478;BME280;12598;62.382;17.344;2023-08-06T04:40:53;101214.28;;;26.17;39.62
13478;BME280;12598;62.382;17.344;2023-08-06T04:41:56;101219.09;;;26.21;39.71
13478;BME280;12598;62.382;17.344;2023-08-06T04:43:01;101211.19;;;26.20;39.77
13478;BME280;12598;62.382;17.344;2023-08-06T04:44:06;101216.22;;;26.23;39.89
13478;BME280;12598;62.382;17.344;2023-08-06T04:45:08;101208.66;;;26.18;39.70
13478;BME280;12598;62.382;17.344;2023-08-06T04:46:11;101218.06;;;26.22;39.73
13478;BME280;12598;62.382;17.344;2023-08-06T04:47:13;101215.75;;;26.19;39.84
13478;BME280;12598;62.382;17.344;2023-08-06T04:48:17;101213.50;;;26.23;39.98
13478;BME280;12598;62.382;17.344;2023-08-06T04:49:22;101213.69;;;26.21;40.01
13478;BME280;12598;62.382;17.344;2023-08-06T04:50:24;101207.63;;;26.19;40.23
13478;BME280;12598;62.382;17.344;2023-08-06T04:51:26;101227.06;;;26.23;40.19
13478;BME280;12598;62.382;17.344;2023-08-06T04:52:28;101219.09;;;26.21;39.86
13478;BME280;12598;62.382;17.344;2023-08-06T04:53:30;101214.28;;;26.17;39.75
13478;BME280;12598;62.382;17.344;2023-08-06T04:54:32;101226.22;;;26.22;40.13
13478;BME280;12598;62.382;17.344;2023-08-06T04:55:33;101225.38;;;26.22;39.95
13478;BME280;12598;62.382;17.344;2023-08-06T04:56:35;101227.88;;;26.23;40.07
13478;BME280;12598;62.382;17.344;2023-08-06T04:57:37;101221.66;;;26.23;39.80
13478;BME280;12598;62.382;17.344;2023-08-06T04:58:39;101223.50;;;26.22;40.16
13478;BME280;12598;62.382;17.344;2023-08-06T04:59:41;101227.88;;;26.23;40.09
13478;BME280;12598;62.382;17.344;2023-08-06T05:00:43;101224.34;;;26.23;40.02
13478;BME280;12598;62.382;17.344;2023-08-06T05:01:45;101228.75;;;26.24;39.90
13478;BME280;12598;62.382;17.344;2023-08-06T05:02:47;101222.47;;;26.23;40.30
13478;BME280;12598;62.382;17.344;2023-08-06T05:03:48;101221.66;;;26.23;40.00
13478;BME280;12598;62.382;17.344;2023-08-06T05:04:50;101222.47;;;26.23;40.02
13478;BME280;12598;62.382;17.344;2023-08-06T05:05:52;101217.81;;;26.17;39.96
13478;BME280;12598;62.382;17.344;2023-08-06T05:06:54;101231.63;;;26.22;40.16
13478;BME280;12598;62.382;17.344;2023-08-06T05:07:56;101226.22;;;26.22;39.96
13478;BME280;12598;62.382;17.344;2023-08-06T05:08:58;101221.16;;;26.19;39.83
13478;BME280;12598;62.382;17.344;2023-08-06T05:10:00;101227.88;;;26.23;39.90
13478;BME280;12598;62.382;17.344;2023-08-06T05:11:02;101227.88;;;26.23;40.19
13478;BME280;12598;62.382;17.344;2023-08-06T05:12:04;101228.75;;;26.24;39.90
13478;BME280;12598;62.382;17.344;2023-08-06T05:13:06;101230.59;;;26.23;40.10
13478;BME280;12598;62.382;17.344;2023-08-06T05:14:08;101235.00;;;26.24;39.77
13478;BME280;12598;62.382;17.344;2023-08-06T05:15:10;101236.88;;;26.24;39.86
13478;BME280;12598;62.382;17.344;2023-08-06T05:16:12;101235.00;;;26.24;40.11
13478;BME280;12598;62.382;17.344;2023-08-06T05:17:14;101240.41;;;26.24;39.96
13478;BME280;12598;62.382;17.344;2023-08-06T05:18:17;101233.69;;;26.20;39.82
13478;BME280;12598;62.382;17.344;2023-08-06T05:19:19;101237.06;;;26.22;39.95
13478;BME280;12598;62.382;17.344;2023-08-06T05:20:21;101251.25;;;26.24;39.86
13478;BME280;12598;62.382;17.344;2023-08-06T05:21:22;101232.56;;;26.15;39.97
13478;BME280;12598;62.382;17.344;2023-08-06T05:22:24;101243.13;;;26.24;39.83
13478;BME280;12598;62.382;17.344;2023-08-06T05:23:26;101247.53;;;26.25;39.81
13478;BME280;12598;62.382;17.344;2023-08-06T05:24:28;101249.41;;;26.25;39.90
13478;BME280;12598;62.382;17.344;2023-08-06T05:25:30;101247.53;;;26.25;40.04
13478;BME280;12598;62.382;17.344;2023-08-06T05:26:32;101234.06;;;26.17;40.07
13478;BME280;12598;62.382;17.344;2023-08-06T05:27:34;101248.38;;;26.26;39.74
13478;BME280;12598;62.382;17.344;2023-08-06T05:28:36;101254.84;;;26.25;39.93